Terminal Aerodrome Forecast
Issued by NWS Tuscon, AZ

Home | Current Version | Previous Version | Text Only | Print | Product List | Glossary On
Versions: 1 2 3 4 5 6 7 8 9 10 11 12 13 14
000
FTUS45 KTWC 242330
TAFDUG
TAF
KDUG 242330Z 2500/2524 26024G34KT P6SM BKN220
     FM250400 24015G23KT P6SM FEW150 BKN220
     FM250700 18013KT P6SM SCT140 BKN220
     FM251400 19020G30KT P6SM SCT110 BKN200
     FM251800 25026G38KT P6SM FEW120 BKN220=

USA.gov is the U.S. government's official web portal to all federal, state and local government web resources and services.